Terminal Aerodrome Forecast
Issued by NWS Jackson, MS

Home | Current Version | Previous Version | Text Only | Print | Product List | Glossary On
Versions: 1 2 3 4 5 6 7 8 9 10 11 12 13 14 15 16
000
FTUS44 KMEG 270716 AAA
TAFTUP
TAF AMD
KTUP 270716Z 2707/2806 VRB03KT 2SM BR SCT250
      TEMPO 2708/2712 1/2SM FG
     FM271400 36006KT P6SM FEW050 SCT250
     FM271800 32009KT P6SM SCT040
     FM280000 30004KT P6SM SKC=

USA.gov is the U.S. government's official web portal to all federal, state and local government web resources and services.